Time;durP1;ratioP1;P1;durP2;ratioP2;P2;SDS_P1;SDS_P2;PMS_P1;PMS_P2;Temp;Humidity;BMP_temperature;BMP_pressure;BME280_temperature;BME280_humidity;BME280_pressure;Samples;Min_cycle;Max_cycle;Signal;HPM_P1;HPM_P2
2022/08/25 00:00:27;;;;;;;3.85;3.38;;;33.00;99.90;;;;;;4981225;28;20242;-94
2022/08/25 00:03:02;;;;;;;4.43;3.35;;;33.10;99.90;;;;;;4980774;28;20236;-94
2022/08/25 00:05:35;;;;;;;4.00;3.65;;;33.00;99.90;;;;;;4967724;28;20287;-94
2022/08/25 00:08:07;;;;;;;4.85;3.67;;;32.90;99.90;;;;;;4968210;28;20211;-94
2022/08/25 00:13:33;;;;;;;3.85;3.10;;;32.80;99.90;;;;;;4965969;28;20216;-94
2022/08/25 00:16:04;;;;;;;4.03;2.92;;;32.60;99.90;;;;;;4969671;28;20230;-94
2022/08/25 00:18:44;;;;;;;3.35;3.05;;;32.60;99.90;;;;;;4966345;29;20203;-94
2022/08/25 00:21:18;;;;;;;4.53;3.17;;;32.50;99.90;;;;;;4969291;28;20238;-93
2022/08/25 00:23:52;;;;;;;3.80;3.05;;;32.70;99.90;;;;;;4965764;28;20242;-94
2022/08/25 00:26:25;;;;;;;3.28;2.97;;;32.40;99.60;;;;;;4980345;28;20297;-93
2022/08/25 00:28:56;;;;;;;3.25;3.00;;;32.40;99.40;;;;;;4984452;28;20215;-93
2022/08/25 00:31:32;;;;;;;4.90;2.80;;;32.70;99.90;;;;;;4988073;28;20215;-94
2022/08/25 00:34:13;;;;;;;4.70;2.92;;;32.60;99.20;;;;;;4986070;28;20214;-94
2022/08/25 00:36:49;;;;;;;3.70;2.70;;;32.60;99.90;;;;;;4986479;28;20214;-93
2022/08/25 00:39:22;;;;;;;4.10;3.08;;;32.70;99.90;;;;;;4987236;28;20221;-93
2022/08/25 00:41:56;;;;;;;6.05;2.90;;;32.60;99.90;;;;;;4986456;28;20242;-93
2022/08/25 00:44:34;;;;;;;3.20;2.90;;;32.70;99.90;;;;;;4984358;28;20246;-93
2022/08/25 00:47:07;;;;;;;3.60;2.80;;;32.50;99.80;;;;;;4968983;28;20215;-94
2022/08/25 00:49:45;;;;;;;3.13;2.80;;;32.60;99.90;;;;;;4966933;28;20615;-94
2022/08/25 00:52:23;;;;;;;4.80;3.17;;;32.40;99.80;;;;;;4967545;28;20239;-92
2022/08/25 00:54:56;;;;;;;3.33;3.03;;;32.40;99.70;;;;;;4965730;28;20266;-93
2022/08/25 00:57:37;;;;;;;3.17;2.85;;;32.20;99.90;;;;;;4968007;28;20215;-93
2022/08/25 01:00:15;;;;;;;3.63;3.00;;;32.20;99.90;;;;;;4967549;28;20211;-93
2022/08/25 01:02:46;;;;;;;4.53;3.42;;;32.20;99.70;;;;;;4966342;28;20211;-93
2022/08/25 01:05:20;;;;;;;4.65;3.40;;;31.90;99.70;;;;;;4966012;28;20204;-93
2022/08/25 01:07:53;;;;;;;4.57;3.30;;;31.90;99.90;;;;;;4965947;28;20218;-93
2022/08/25 01:10:29;;;;;;;3.83;3.03;;;31.90;99.90;;;;;;4965899;28;20706;-93
2022/08/25 01:13:06;;;;;;;3.33;3.13;;;31.90;99.30;;;;;;4963018;28;20263;-93
2022/08/25 01:15:46;;;;;;;3.60;3.30;;;32.20;99.90;;;;;;4962370;28;20246;-93
2022/08/25 01:18:19;;;;;;;3.70;3.40;;;32.40;99.90;;;;;;4963361;28;20271;-94
2022/08/25 01:20:57;;;;;;;3.50;3.20;;;32.70;99.60;;;;;;4961946;29;20235;-93
2022/08/25 01:23:28;;;;;;;6.22;3.28;;;32.90;99.60;;;;;;4962215;28;20227;-93
2022/08/25 01:26:06;;;;;;;6.03;3.97;;;32.90;99.60;;;;;;4974104;28;20237;-94
2022/08/25 01:29:19;;;;;;;4.47;3.35;;;32.80;99.60;;;;;;4980304;28;20207;-94
2022/08/25 01:31:31;;;;;;;4.00;3.60;;;32.30;99.90;;;;;;4979451;28;20214;-94
2022/08/25 01:34:04;;;;;;;5.13;3.58;;;31.70;99.90;;;;;;4982974;28;20210;-95
2022/08/25 01:37:03;;;;;;;6.97;3.67;;;31.10;99.90;;;;;;4992680;28;20221;-95
2022/08/25 01:39:50;;;;;;;5.35;3.53;;;30.60;99.90;;;;;;4991227;28;20246;-95
2022/08/25 01:42:43;;;;;;;5.45;3.80;;;30.20;99.90;;;;;;4990599;28;20265;-95
2022/08/25 01:45:15;;;;;;;9.23;3.80;;;29.80;99.90;;;;;;4970054;28;20247;-95
2022/08/25 01:47:50;;;;;;;4.40;3.90;;;29.40;99.90;;;;;;4971337;28;20225;-93
2022/08/25 01:50:26;;;;;;;4.40;4.00;;;29.30;99.90;;;;;;4968495;28;20199;-95
2022/08/25 01:56:31;;;;;;;5.37;4.00;;;29.10;99.90;;;;;;4973966;28;20211;-95
2022/08/25 01:59:04;;;;;;;4.65;4.00;;;29.00;99.90;;;;;;4972220;28;20243;-95
2022/08/25 02:01:35;;;;;;;4.17;3.80;;;28.80;99.90;;;;;;4959129;28;20239;-94
2022/08/25 02:04:07;;;;;;;4.90;4.10;;;28.70;99.90;;;;;;4960843;28;20234;-95
2022/08/25 02:06:39;;;;;;;6.40;4.20;;;28.60;99.90;;;;;;4959525;28;20211;-94
2022/08/25 02:09:12;;;;;;;4.53;3.87;;;28.50;99.90;;;;;;4959832;28;20247;-95
2022/08/25 02:11:48;;;;;;;5.63;4.00;;;28.50;99.90;;;;;;4966251;28;20268;-96
2022/08/25 02:14:20;;;;;;;7.03;3.97;;;28.40;99.90;;;;;;4969370;29;20207;-95
2022/08/25 02:16:54;;;;;;;6.50;4.37;;;28.30;99.90;;;;;;4962137;28;20231;-95
2022/08/25 02:19:29;;;;;;;7.23;3.97;;;28.20;99.90;;;;;;4977529;28;20204;-95
2022/08/25 02:24:33;;;;;;;5.43;3.70;;;28.10;99.90;;;;;;5035088;28;20213;-94
2022/08/25 02:27:07;;;;;;;5.37;3.57;;;27.90;99.90;;;;;;5036440;28;20233;-95
2022/08/25 02:29:39;;;;;;;6.30;4.17;;;27.80;99.90;;;;;;5019060;28;20260;-94
2022/08/25 02:32:10;;;;;;;6.47;5.20;;;27.70;99.90;;;;;;5016843;28;20210;-95
2022/08/25 02:34:42;;;;;;;8.77;5.20;;;27.60;99.90;;;;;;5016754;28;20280;-95
2022/08/25 02:40:13;;;;;;;5.83;4.20;;;27.40;99.90;;;;;;5030081;28;20236;-95
2022/08/25 02:46:48;;;;;;;5.57;4.43;;;27.20;99.90;;;;;;5035476;28;20217;-96
2022/08/25 02:55:19;;;;;;;4.93;3.80;;;26.80;99.90;;;;;;5234243;23;20238;-95
2022/08/25 03:14:27;;;;;;;17.63;8.87;;;25.90;99.90;;;;;;4992550;28;20219;-94
2022/08/25 03:16:58;;;;;;;12.43;7.37;;;25.70;99.90;;;;;;4997728;28;20215;-93
2022/08/25 03:19:29;;;;;;;16.07;8.30;;;25.40;99.90;;;;;;4981257;28;20290;-93
2022/08/25 03:22:08;;;;;;;8.37;5.10;;;25.20;99.90;;;;;;4993440;28;20387;-93
2022/08/25 03:27:35;;;;;;;7.20;6.00;;;24.70;99.90;;;;;;4992339;28;20207;-94
2022/08/25 03:32:57;;;;;;;5.70;4.20;;;24.50;99.90;;;;;;4992904;28;20207;-94
2022/08/25 03:35:29;;;;;;;4.97;4.47;;;24.40;99.90;;;;;;4992138;28;20242;-93
2022/08/25 03:38:37;;;;;;;5.27;4.60;;;24.40;99.90;;;;;;4990965;28;20217;-93
2022/08/25 03:41:16;;;;;;;4.87;4.40;;;24.40;99.90;;;;;;4992258;28;20213;-93
2022/08/25 03:46:50;;;;;;;6.33;4.93;;;24.30;99.90;;;;;;4994937;28;20211;-93
2022/08/25 03:49:28;;;;;;;6.13;4.73;;;24.20;99.90;;;;;;4992090;28;20266;-94
2022/08/25 03:52:12;;;;;;;6.23;4.53;;;24.20;99.90;;;;;;4990791;28;20222;-93
2022/08/25 03:57:45;;;;;;;5.43;4.97;;;24.10;99.90;;;;;;5034554;27;3304758;-94
2022/08/25 04:00:22;;;;;;;7.37;4.93;;;23.90;99.90;;;;;;5168616;27;20205;-93
2022/08/25 04:03:04;;;;;;;7.60;5.10;;;23.90;99.90;;;;;;5167283;27;20637;-94
2022/08/25 04:05:41;;;;;;;7.53;5.10;;;23.80;99.90;;;;;;5153022;27;20215;-94
2022/08/25 04:08:22;;;;;;;5.80;4.90;;;23.80;99.90;;;;;;5166899;27;20205;-94
2022/08/25 04:10:54;;;;;;;7.20;5.10;;;23.70;99.90;;;;;;5169327;27;20208;-94
2022/08/25 04:13:36;;;;;;;9.13;5.23;;;23.70;99.90;;;;;;5167688;27;20664;-94
2022/08/25 04:16:13;;;;;;;8.63;4.87;;;23.60;99.90;;;;;;5145501;27;20245;-93
2022/08/25 04:18:45;;;;;;;7.47;4.80;;;23.60;99.90;;;;;;5135037;28;20209;-93
2022/08/25 04:21:20;;;;;;;5.73;4.67;;;23.50;99.90;;;;;;5136535;28;20227;-93
2022/08/25 04:23:53;;;;;;;5.50;5.00;;;23.50;99.90;;;;;;5133176;28;20245;-94
2022/08/25 04:26:26;;;;;;;6.23;5.07;;;23.50;99.90;;;;;;5113682;28;20207;-93
2022/08/25 04:29:02;;;;;;;6.93;5.30;;;23.50;99.90;;;;;;5114245;28;20615;-94
2022/08/25 04:31:34;;;;;;;6.93;4.83;;;23.40;99.90;;;;;;5118096;28;20614;-93
2022/08/25 04:34:08;;;;;;;8.10;5.20;;;23.40;99.90;;;;;;5114871;28;20214;-94
2022/08/25 04:37:01;;;;;;;6.67;4.87;;;23.40;99.90;;;;;;5124740;28;20230;-94
2022/08/25 04:39:36;;;;;;;5.27;4.33;;;23.30;99.90;;;;;;5127574;28;20201;-94
2022/08/25 04:42:20;;;;;;;7.37;4.83;;;23.30;99.90;;;;;;5109296;28;20194;-94
2022/08/25 04:45:26;;;;;;;7.97;4.97;;;23.30;99.90;;;;;;5127753;28;20230;-94
2022/08/25 04:50:43;;;;;;;8.70;5.17;;;23.20;99.90;;;;;;5120211;28;20209;-94
2022/08/25 04:53:14;;;;;;;7.97;5.23;;;23.10;99.90;;;;;;5121569;28;20605;-94
2022/08/25 04:55:49;;;;;;;5.77;5.27;;;23.10;99.90;;;;;;5114659;28;20213;-93
2022/08/25 04:58:21;;;;;;;8.53;4.93;;;23.10;99.90;;;;;;5112939;28;20623;-94
2022/08/25 05:01:03;;;;;;;6.93;4.70;;;23.10;99.90;;;;;;5113439;28;20343;-94
2022/08/25 05:03:35;;;;;;;5.23;4.40;;;23.00;99.90;;;;;;5112970;28;20213;-94
2022/08/25 05:06:07;;;;;;;5.57;4.73;;;23.00;99.90;;;;;;5113300;28;20283;-94
2022/08/25 05:08:44;;;;;;;7.57;5.37;;;22.90;99.90;;;;;;5101302;28;20226;-94
2022/08/25 05:11:18;;;;;;;6.63;4.90;;;22.90;99.90;;;;;;5100201;28;20230;-94
2022/08/25 05:13:53;;;;;;;6.73;4.90;;;22.90;99.90;;;;;;5099596;28;20297;-94
2022/08/25 05:16:29;;;;;;;5.63;4.60;;;22.80;99.90;;;;;;5100295;28;20242;-93
2022/08/25 05:19:00;;;;;;;7.00;5.20;;;22.80;99.90;;;;;;5099471;28;20256;-93
2022/08/25 05:21:32;;;;;;;6.70;4.67;;;22.70;99.90;;;;;;5101338;28;20203;-94
2022/08/25 05:24:04;;;;;;;13.03;5.20;;;22.70;99.90;;;;;;5101434;28;20263;-94
2022/08/25 05:26:37;;;;;;;5.73;5.00;;;22.60;99.90;;;;;;5102666;28;20203;-94
2022/08/25 05:29:09;;;;;;;5.03;4.53;;;22.60;99.90;;;;;;5101163;28;20592;-94
2022/08/25 05:31:44;;;;;;;6.10;4.87;;;22.60;99.90;;;;;;5081160;28;20199;-94
2022/08/25 05:34:21;;;;;;;5.70;4.80;;;22.60;99.90;;;;;;5101804;28;20214;-94
2022/08/25 05:36:52;;;;;;;5.07;4.63;;;22.50;99.90;;;;;;5100159;28;20230;-94
2022/08/25 05:39:23;;;;;;;6.80;5.00;;;22.40;99.90;;;;;;5100558;28;20281;-94
2022/08/25 05:41:56;;;;;;;5.53;4.70;;;22.40;99.90;;;;;;5102424;28;20218;-93
2022/08/25 05:44:31;;;;;;;6.83;5.10;;;22.40;99.90;;;;;;5085943;28;20249;-93
2022/08/25 05:47:05;;;;;;;5.03;4.63;;;22.30;99.90;;;;;;5117509;28;20202;-95
2022/08/25 05:49:37;;;;;;;5.33;4.80;;;22.30;99.90;;;;;;5119145;28;20275;-94
2022/08/25 05:52:08;;;;;;;6.57;4.90;;;22.30;99.90;;;;;;5118169;28;20202;-95
2022/08/25 05:54:44;;;;;;;7.43;4.90;;;22.30;99.90;;;;;;5118447;28;20275;-93
2022/08/25 05:57:16;;;;;;;6.17;4.70;;;22.20;99.90;;;;;;5101212;28;20242;-95
2022/08/25 05:59:47;;;;;;;6.93;5.00;;;22.20;99.90;;;;;;5119016;28;20221;-94
2022/08/25 06:08:09;;;;;;;5.77;5.17;;;22.10;99.90;;;;;;5118747;28;20205;-94
2022/08/25 06:10:45;;;;;;;5.57;5.03;;;22.10;99.90;;;;;;5266965;22;20251;-93
2022/08/25 06:13:17;;;;;;;5.83;5.23;;;22.00;99.90;;;;;;5045535;28;20266;-93
2022/08/25 06:15:59;;;;;;;7.40;5.50;;;22.00;99.90;;;;;;5060105;28;20204;-93
2022/08/25 06:18:33;;;;;;;5.87;5.27;;;21.90;99.90;;;;;;5059603;28;20236;-93
2022/08/25 06:21:11;;;;;;;8.93;5.07;;;21.90;99.90;;;;;;5058936;28;20212;-93
2022/08/25 06:23:43;;;;;;;5.60;5.10;;;21.90;99.90;;;;;;5066115;28;20224;-93
2022/08/25 06:26:15;;;;;;;6.27;5.50;;;21.80;99.90;;;;;;5078916;28;20206;-93
2022/08/25 06:28:51;;;;;;;6.13;5.53;;;21.80;99.90;;;;;;5078790;28;20214;-91
2022/08/25 06:31:23;;;;;;;5.30;4.80;;;21.70;99.90;;;;;;5060705;28;20231;-93
2022/08/25 06:33:57;;;;;;;6.43;5.33;;;21.60;99.90;;;;;;5078882;28;20298;-93
2022/08/25 06:36:29;;;;;;;5.27;4.77;;;21.50;99.90;;;;;;5078585;28;20203;-93
2022/08/25 06:38:59;;;;;;;5.77;5.27;;;21.50;99.90;;;;;;5078587;28;20212;-93
2022/08/25 06:41:31;;;;;;;5.30;4.80;;;21.50;99.90;;;;;;5080110;28;20584;-93
2022/08/25 06:44:07;;;;;;;5.47;4.90;;;21.40;99.90;;;;;;5079631;28;20215;-93
2022/08/25 06:46:39;;;;;;;5.70;5.20;;;21.40;99.90;;;;;;5079490;28;20218;-93
2022/08/25 06:49:12;;;;;;;6.33;5.43;;;21.40;99.90;;;;;;5077770;28;20226;-93
2022/08/25 06:51:45;;;;;;;5.57;5.07;;;21.40;99.90;;;;;;5079412;28;20629;-93
2022/08/25 06:54:18;;;;;;;5.63;5.13;;;21.30;99.90;;;;;;5078016;28;20551;-93
2022/08/25 06:57:16;;;;;;;5.53;5.03;;;21.30;99.90;;;;;;5077493;28;20265;-93
2022/08/25 06:59:48;;;;;;;6.50;5.37;;;21.30;99.90;;;;;;5078963;28;20213;-92
2022/08/25 07:02:22;;;;;;;9.50;5.70;;;21.20;99.90;;;;;;5060630;28;20239;-93
2022/08/25 07:04:55;;;;;;;6.73;5.50;;;21.20;99.90;;;;;;5078794;28;20211;-93
2022/08/25 07:07:26;;;;;;;6.90;5.40;;;21.20;99.90;;;;;;5078891;28;20587;-93
2022/08/25 07:10:13;;;;;;;5.97;5.37;;;21.10;99.90;;;;;;5078515;28;20241;-93
2022/08/25 07:12:49;;;;;;;7.00;5.70;;;21.10;99.90;;;;;;5077918;28;20207;-92
2022/08/25 07:15:21;;;;;;;6.03;5.47;;;21.10;99.90;;;;;;5081141;28;20214;-93
2022/08/25 07:17:53;;;;;;;6.00;5.40;;;21.00;99.90;;;;;;5082476;28;20272;-93
2022/08/25 07:20:28;;;;;;;6.37;5.23;;;21.00;99.90;;;;;;5097188;28;20195;-93
2022/08/25 07:22:59;;;;;;;7.60;5.23;;;20.90;99.90;;;;;;5095946;28;20223;-93
2022/08/25 07:25:31;;;;;;;6.37;5.00;;;20.90;99.90;;;;;;5096483;28;20279;-93
2022/08/25 07:28:04;;;;;;;6.07;5.53;;;20.90;99.90;;;;;;5094702;28;20208;-93
2022/08/25 07:30:38;;;;;;;6.13;5.53;;;20.80;99.90;;;;;;5066008;28;20294;-93
2022/08/25 07:33:11;;;;;;;8.40;5.83;;;20.80;99.90;;;;;;5078260;28;20214;-93
2022/08/25 07:35:44;;;;;;;5.57;5.07;;;20.80;99.90;;;;;;5087257;28;20204;-93
2022/08/25 07:38:21;;;;;;;6.77;5.63;;;20.80;99.90;;;;;;5085090;28;20284;-92
2022/08/25 07:40:55;;;;;;;8.33;5.57;;;20.70;99.90;;;;;;5084291;28;20233;-93
2022/08/25 07:43:27;;;;;;;6.17;5.57;;;20.70;99.90;;;;;;5082002;28;20191;-93
2022/08/25 07:45:57;;;;;;;9.60;5.63;;;20.70;99.90;;;;;;5080125;28;20249;-93
2022/08/25 07:48:29;;;;;;;6.63;5.97;;;20.60;99.90;;;;;;5080839;28;20280;-93
2022/08/25 07:51:09;;;;;;;5.83;5.33;;;20.60;99.90;;;;;;5081647;28;20412;-93
2022/08/25 07:53:42;;;;;;;6.00;5.40;;;20.60;99.90;;;;;;5079254;28;20196;-93
2022/08/25 07:56:16;;;;;;;7.93;5.90;;;20.60;99.90;;;;;;5079629;28;20203;-93
2022/08/25 07:58:48;;;;;;;9.07;5.80;;;20.50;99.90;;;;;;5077901;28;20235;-93
2022/08/25 08:01:21;;;;;;;8.40;5.67;;;20.50;99.90;;;;;;5078911;28;20239;-93
2022/08/25 08:03:53;;;;;;;6.33;5.73;;;20.40;99.90;;;;;;5076774;28;20212;-93
2022/08/25 08:06:30;;;;;;;8.03;5.97;;;20.40;99.90;;;;;;5077674;28;20214;-93
2022/08/25 08:09:01;;;;;;;6.43;5.27;;;20.40;99.90;;;;;;5077637;28;20212;-93
2022/08/25 08:11:39;;;;;;;8.07;5.60;;;20.40;99.90;;;;;;5077104;28;20227;-93
2022/08/25 08:14:22;;;;;;;6.77;5.53;;;20.40;99.90;;;;;;5076259;28;20203;-93
2022/08/25 08:16:54;;;;;;;6.20;5.60;;;20.30;99.90;;;;;;5076727;28;20663;-93
2022/08/25 08:19:26;;;;;;;8.93;5.90;;;20.30;99.90;;;;;;5076443;28;20643;-93
2022/08/25 08:22:00;;;;;;;7.33;5.93;;;20.20;99.90;;;;;;5076068;28;20286;-93
2022/08/25 08:24:33;;;;;;;6.27;5.67;;;20.20;99.90;;;;;;5076537;28;20238;-93
2022/08/25 08:27:24;;;;;;;7.60;6.47;;;20.20;99.90;;;;;;5078584;28;20268;-93
2022/08/25 08:32:56;;;;;;;10.40;6.40;;;20.10;99.90;;;;;;5077742;28;20243;-94
2022/08/25 08:35:40;;;;;;;8.37;5.43;;;20.00;99.90;;;;;;5082840;28;20380;-93
2022/08/25 08:38:15;;;;;;;7.60;5.37;;;20.00;99.90;;;;;;5077614;28;20312;-93
2022/08/25 08:44:03;;;;;;;8.37;5.03;;;20.00;99.90;;;;;;5085818;28;20672;-92
2022/08/25 08:46:44;;;;;;;9.07;5.57;;;20.00;99.90;;;;;;5059732;28;20235;-92
2022/08/25 08:49:23;;;;;;;7.57;6.10;;;20.00;99.90;;;;;;5077143;28;20692;-93
2022/08/25 08:52:02;;;;;;;7.00;5.80;;;20.00;99.90;;;;;;5064933;28;20210;-93
2022/08/25 08:54:39;;;;;;;6.37;5.77;;;19.90;99.90;;;;;;5062105;28;20200;-93
2022/08/25 08:57:15;;;;;;;6.83;6.10;;;19.90;99.90;;;;;;5063120;28;20215;-92
2022/08/25 08:59:52;;;;;;;8.53;5.80;;;19.90;99.90;;;;;;5060121;28;20236;-93
2022/08/25 09:02:30;;;;;;;10.80;5.83;;;19.80;99.90;;;;;;5059888;28;20218;-93
2022/08/25 09:05:23;;;;;;;7.97;5.63;;;19.80;99.90;;;;;;5059827;28;20214;-93
2022/08/25 09:07:59;;;;;;;8.27;5.60;;;19.80;99.90;;;;;;5060066;28;20204;-92
2022/08/25 09:10:45;;;;;;;6.30;5.70;;;19.70;99.90;;;;;;5060098;28;20326;-93
2022/08/25 09:13:24;;;;;;;5.73;5.23;;;19.70;99.90;;;;;;5059330;28;20239;-93
2022/08/25 09:19:18;;;;;;;9.83;5.77;;;19.70;99.90;;;;;;5080649;28;20237;-92
2022/08/25 09:21:57;;;;;;;6.23;5.50;;;19.70;99.90;;;;;;5079184;28;20207;-93
2022/08/25 09:24:40;;;;;;;6.37;5.77;;;19.60;99.90;;;;;;5088832;28;20254;-92
2022/08/25 09:27:25;;;;;;;6.40;5.80;;;19.60;99.90;;;;;;5088344;28;20318;-93
2022/08/25 09:30:08;;;;;;;6.77;6.10;;;19.60;99.90;;;;;;5081946;28;20204;-94
2022/08/25 09:32:42;;;;;;;6.63;6.03;;;19.50;99.90;;;;;;5080913;28;20207;-92
2022/08/25 09:35:24;;;;;;;8.73;5.70;;;19.50;99.90;;;;;;5082221;28;20364;-92
2022/08/25 09:38:00;;;;;;;6.60;5.87;;;19.50;99.90;;;;;;5080210;28;20195;-93
2022/08/25 09:40:33;;;;;;;7.30;6.07;;;19.40;99.90;;;;;;5079397;28;20226;-93
2022/08/25 09:43:22;;;;;;;8.57;6.33;;;19.40;99.90;;;;;;5079297;28;20203;-93
2022/08/25 09:46:02;;;;;;;6.67;5.97;;;19.30;99.90;;;;;;5080403;28;20296;-93
2022/08/25 09:48:36;;;;;;;9.97;6.13;;;19.30;99.90;;;;;;5080348;28;20211;-93
2022/08/25 09:51:19;;;;;;;6.50;5.47;;;19.20;99.90;;;;;;5085733;28;20195;-92
2022/08/25 09:53:54;;;;;;;6.93;6.30;;;19.20;99.90;;;;;;5086774;28;20207;-92
2022/08/25 09:56:30;;;;;;;10.03;6.30;;;19.10;99.90;;;;;;5073640;28;20203;-93
2022/08/25 09:59:23;;;;;;;8.93;6.03;;;19.10;99.90;;;;;;5093014;28;20235;-93
2022/08/25 10:02:25;;;;;;;6.97;6.07;;;19.10;99.90;;;;;;5074859;28;20268;-93
2022/08/25 10:04:57;;;;;;;7.67;6.63;;;19.00;99.90;;;;;;5074306;28;20204;-93
2022/08/25 10:07:34;;;;;;;8.37;6.40;;;19.00;99.90;;;;;;5073393;28;20230;-93
2022/08/25 10:10:17;;;;;;;7.60;6.80;;;19.00;99.90;;;;;;5073447;28;20345;-93
2022/08/25 10:12:49;;;;;;;6.60;6.00;;;19.00;99.90;;;;;;5076251;28;20207;-93
2022/08/25 10:15:26;;;;;;;8.97;6.43;;;19.00;99.90;;;;;;5065882;28;20322;-93
2022/08/25 10:18:22;;;;;;;7.73;6.17;;;19.00;99.90;;;;;;5076723;28;20215;-93
2022/08/25 10:21:08;;;;;;;11.23;6.70;;;19.00;99.90;;;;;;5076929;28;20250;-94
2022/08/25 10:23:43;;;;;;;9.23;6.00;;;18.90;99.90;;;;;;5076459;28;20239;-94
2022/08/25 10:26:31;;;;;;;6.90;6.20;;;18.90;99.90;;;;;;5093882;28;20241;-94
2022/08/25 10:29:24;;;;;;;6.53;6.03;;;18.90;99.90;;;;;;5097158;28;20259;-93
2022/08/25 10:32:01;;;;;;;6.43;5.83;;;18.90;99.90;;;;;;5096130;28;20218;-91
2022/08/25 10:34:44;;;;;;;6.73;6.07;;;18.90;99.90;;;;;;5097510;28;20245;-94
2022/08/25 10:37:30;;;;;;;6.73;5.97;;;18.90;99.90;;;;;;5097272;28;20206;-93
2022/08/25 10:40:14;;;;;;;8.53;6.17;;;18.80;99.90;;;;;;5096752;28;20254;-94
2022/08/25 10:42:57;;;;;;;6.73;6.10;;;18.80;99.90;;;;;;5075365;28;20254;-93
2022/08/25 10:45:46;;;;;;;6.80;6.10;;;18.70;99.90;;;;;;5070142;28;20222;-93
2022/08/25 10:48:43;;;;;;;7.77;6.07;;;18.70;99.90;;;;;;5060714;28;20232;-93
2022/08/25 10:51:43;;;;;;;8.97;6.20;;;18.70;99.90;;;;;;5060211;28;20291;-92
2022/08/25 10:54:30;;;;;;;8.10;6.67;;;18.70;99.90;;;;;;5060595;28;20681;-93
2022/08/25 10:57:13;;;;;;;7.27;6.50;;;18.70;99.90;;;;;;5060790;28;20258;-93
2022/08/25 10:59:56;;;;;;;6.53;5.93;;;18.70;99.90;;;;;;5060631;28;20236;-93
2022/08/25 11:03:00;;;;;;;6.00;5.40;;;18.60;99.90;;;;;;5060056;28;20258;-93
2022/08/25 11:05:41;;;;;;;7.03;6.17;;;18.70;99.90;;;;;;5059687;28;20212;-94
2022/08/25 11:08:20;;;;;;;6.53;5.83;;;18.60;99.90;;;;;;5060339;28;20242;-93
2022/08/25 11:10:55;;;;;;;7.00;5.83;;;18.60;99.90;;;;;;5060127;28;20235;-92
2022/08/25 11:13:39;;;;;;;8.73;5.67;;;18.60;99.90;;;;;;5061297;28;20671;-93
2022/08/25 11:16:15;;;;;;;7.13;6.33;;;18.60;99.90;;;;;;5081943;28;20303;-93
2022/08/25 11:18:57;;;;;;;6.50;5.90;;;18.50;99.90;;;;;;5086560;28;20203;-93
2022/08/25 11:21:39;;;;;;;6.87;6.20;;;18.50;99.90;;;;;;5079672;28;20266;-94
2022/08/25 11:24:22;;;;;;;6.90;5.60;;;18.50;99.90;;;;;;5079402;28;20211;-93
2022/08/25 11:26:57;;;;;;;6.10;5.50;;;18.50;99.90;;;;;;5062600;28;20268;-94
2022/08/25 11:29:35;;;;;;;10.73;6.07;;;18.40;99.90;;;;;;5062106;28;20226;-93
2022/08/25 11:32:09;;;;;;;6.27;5.67;;;18.40;99.90;;;;;;5078265;28;20707;-93
2022/08/25 11:34:41;;;;;;;8.63;5.80;;;18.40;99.90;;;;;;5078922;28;20214;-93
2022/08/25 11:37:22;;;;;;;6.23;5.57;;;18.40;99.90;;;;;;5079732;28;20207;-94
2022/08/25 11:40:24;;;;;;;9.23;5.70;;;18.40;99.90;;;;;;5080013;28;20390;-92
2022/08/25 11:43:05;;;;;;;9.80;6.20;;;18.40;99.90;;;;;;5077415;28;20289;-93
2022/08/25 11:45:59;;;;;;;8.37;5.80;;;18.30;99.90;;;;;;5048373;28;20253;-93
2022/08/25 11:48:42;;;;;;;6.20;5.60;;;18.40;99.90;;;;;;5057504;28;20290;-93
2022/08/25 11:51:33;;;;;;;7.53;5.57;;;18.30;99.90;;;;;;5058391;28;20640;-94
2022/08/25 11:54:23;;;;;;;9.50;6.00;;;18.30;99.90;;;;;;5062110;28;20204;-93
2022/08/25 11:57:01;;;;;;;5.87;5.37;;;18.30;99.90;;;;;;5059860;28;20208;-93
2022/08/25 12:00:08;;;;;;;8.13;6.03;;;18.30;99.90;;;;;;5060743;28;20676;-93
2022/08/25 12:02:43;;;;;;;7.00;6.40;;;18.20;99.90;;;;;;5059064;28;20223;-93
2022/08/25 12:05:47;;;;;;;7.63;5.67;;;18.20;99.90;;;;;;5061316;28;20263;-93
2022/08/25 12:08:53;;;;;;;7.73;5.83;;;18.10;99.90;;;;;;5059638;28;20262;-93
2022/08/25 12:11:53;;;;;;;7.23;5.90;;;18.10;99.90;;;;;;5057241;28;20236;-94
2022/08/25 12:14:52;;;;;;;6.87;6.20;;;18.10;99.90;;;;;;5059272;28;20230;-93
2022/08/25 12:17:38;;;;;;;6.50;5.90;;;18.10;99.90;;;;;;5015181;28;20584;-93
2022/08/25 12:20:10;;;;;;;7.40;5.90;;;18.10;99.90;;;;;;5062123;28;20228;-93
2022/08/25 12:22:56;;;;;;;5.93;5.07;;;18.10;99.90;;;;;;5061500;28;20263;-93
2022/08/25 12:25:51;;;;;;;8.03;6.43;;;18.10;99.90;;;;;;5061868;28;20207;-93
2022/08/25 12:28:57;;;;;;;6.77;5.70;;;18.10;99.90;;;;;;5059389;28;20208;-92
2022/08/25 12:32:05;;;;;;;6.40;5.73;;;18.10;99.90;;;;;;5049401;28;20263;-93
2022/08/25 12:35:21;;;;;;;7.37;6.00;;;18.10;99.90;;;;;;5061929;28;20709;-93
2022/08/25 12:38:05;;;;;;;7.23;5.60;;;18.10;99.90;;;;;;5061813;28;20208;-94
2022/08/25 12:40:40;;;;;;;7.67;5.90;;;18.10;99.90;;;;;;5061430;28;20208;-93
2022/08/25 12:43:23;;;;;;;8.57;6.00;;;18.00;99.90;;;;;;5061207;28;20208;-93
2022/08/25 12:46:16;;;;;;;8.63;6.13;;;18.00;99.90;;;;;;5076959;28;20216;-93
2022/08/25 12:49:01;;;;;;;8.47;6.37;;;17.90;99.90;;;;;;5081789;28;20206;-93
2022/08/25 12:51:55;;;;;;;6.60;6.00;;;17.90;99.90;;;;;;5081380;28;20227;-94
2022/08/25 12:54:40;;;;;;;7.37;6.70;;;17.90;99.90;;;;;;5089668;28;20204;-94
2022/08/25 12:57:32;;;;;;;7.40;6.67;;;17.90;99.90;;;;;;5099356;28;20230;-93
2022/08/25 13:00:15;;;;;;;10.47;6.10;;;17.90;99.90;;;;;;5100090;28;20204;-93
2022/08/25 13:03:27;;;;;;;6.60;6.00;;;17.90;99.90;;;;;;5098785;28;20199;-93
2022/08/25 13:06:29;;;;;;;6.97;6.37;;;17.90;99.90;;;;;;5098058;28;20218;-93
2022/08/25 13:09:27;;;;;;;7.13;6.40;;;17.90;99.90;;;;;;5081924;28;20335;-93
2022/08/25 13:12:09;;;;;;;13.70;6.90;;;17.90;99.90;;;;;;5080458;28;20235;-93
2022/08/25 13:14:42;;;;;;;9.23;6.47;;;17.90;99.90;;;;;;5081560;28;20211;-93
2022/08/25 13:17:26;;;;;;;7.90;6.77;;;17.90;99.90;;;;;;5081611;28;20196;-94
2022/08/25 13:20:19;;;;;;;7.57;6.80;;;17.90;99.90;;;;;;5080782;28;20210;-93
2022/08/25 13:22:57;;;;;;;6.97;6.27;;;17.90;99.90;;;;;;5081883;28;20224;-93
2022/08/25 13:25:32;;;;;;;10.07;7.07;;;17.80;99.90;;;;;;5080813;28;20212;-93
2022/08/25 13:28:07;;;;;;;7.27;6.67;;;17.90;99.90;;;;;;5079808;28;20211;-93
2022/08/25 13:30:40;;;;;;;7.80;7.00;;;17.80;99.90;;;;;;5080136;28;20309;-93
2022/08/25 13:33:19;;;;;;;8.23;6.53;;;17.90;99.90;;;;;;5079379;28;20215;-93
2022/08/25 13:37:26;;;;;;;7.70;6.77;;;17.90;99.90;;;;;;5079540;28;20212;-93
2022/08/25 13:38:49;;;;;;;7.37;6.67;;;17.90;99.90;;;;;;5079786;28;20251;-94
2022/08/25 13:41:25;;;;;;;7.00;6.37;;;17.90;99.90;;;;;;5080394;28;20233;-94
2022/08/25 13:44:02;;;;;;;7.90;7.10;;;17.90;99.90;;;;;;5081766;28;20207;-94
2022/08/25 13:46:34;;;;;;;7.30;6.67;;;17.90;99.90;;;;;;5082401;28;20656;-93
2022/08/25 13:49:08;;;;;;;7.90;7.10;;;18.00;99.90;;;;;;5082048;28;20207;-93
2022/08/25 13:51:52;;;;;;;6.90;6.30;;;18.00;99.90;;;;;;5093322;28;20224;-93
2022/08/25 13:54:31;;;;;;;7.80;6.90;;;18.00;99.90;;;;;;5090996;28;20211;-94
2022/08/25 13:57:17;;;;;;;9.33;6.47;;;17.90;99.90;;;;;;5084775;28;20227;-93
2022/08/25 13:59:52;;;;;;;7.70;6.37;;;18.00;99.90;;;;;;5079947;28;20274;-93
2022/08/25 14:02:43;;;;;;;6.90;6.30;;;18.10;99.90;;;;;;5078835;28;20211;-93
2022/08/25 14:05:33;;;;;;;8.50;6.07;;;18.10;99.90;;;;;;5079560;28;20253;-93
2022/08/25 14:08:07;;;;;;;7.00;6.37;;;18.00;99.90;;;;;;5079017;28;20230;-93
2022/08/25 14:11:08;;;;;;;9.23;6.67;;;18.00;99.90;;;;;;5078528;28;20235;-94
2022/08/25 14:13:45;;;;;;;7.63;6.73;;;18.10;99.90;;;;;;5079995;28;20212;-92
2022/08/25 14:16:23;;;;;;;6.87;6.07;;;18.10;99.90;;;;;;5080468;28;20215;-93
2022/08/25 14:18:57;;;;;;;6.60;6.10;;;18.20;99.90;;;;;;5079210;28;20238;-93
2022/08/25 14:21:29;;;;;;;9.70;6.97;;;18.20;99.90;;;;;;5082331;28;20322;-93
2022/08/25 14:24:05;;;;;;;6.57;5.97;;;18.20;99.90;;;;;;5081216;28;20214;-93
2022/08/25 14:26:41;;;;;;;8.50;6.30;;;18.30;99.90;;;;;;5080141;28;20214;-93
2022/08/25 14:29:23;;;;;;;7.87;6.50;;;18.30;99.90;;;;;;5078617;28;20203;-93
2022/08/25 14:31:56;;;;;;;7.20;6.40;;;18.30;99.90;;;;;;5078002;28;20769;-93
2022/08/25 14:34:30;;;;;;;8.70;6.80;;;18.40;99.90;;;;;;5078299;28;20208;-93
2022/08/25 14:37:02;;;;;;;6.77;6.10;;;18.40;99.90;;;;;;5078592;28;20203;-93
2022/08/25 14:39:42;;;;;;;7.57;6.27;;;18.50;99.90;;;;;;5085920;28;20207;-93
2022/08/25 14:42:18;;;;;;;7.77;6.63;;;18.50;99.90;;;;;;5083044;28;20269;-93
2022/08/25 14:44:54;;;;;;;10.33;8.33;;;18.60;99.90;;;;;;5078909;28;20207;-94
2022/08/25 14:47:25;;;;;;;12.00;9.43;;;18.70;99.90;;;;;;5080010;28;20215;-93
2022/08/25 14:50:00;;;;;;;13.60;10.90;;;18.90;99.90;;;;;;5083371;28;20211;-93
2022/08/25 14:52:32;;;;;;;15.83;12.10;;;19.10;99.90;;;;;;5065081;28;20256;-93